createdAt,value
2022-10-08T00:00:37.762Z,11.07
2022-10-08T00:05:45.782Z,9.03
2022-10-08T00:10:55.091Z,10.23
2022-10-08T00:16:04.583Z,10.33
2022-10-08T00:21:16.166Z,10.20
2022-10-08T00:26:28.066Z,11.40
2022-10-08T00:31:37.522Z,12.67
2022-10-08T00:36:45.560Z,14.60
2022-10-08T00:41:55.163Z,14.23
2022-10-08T00:47:03.520Z,12.93
2022-10-08T00:52:11.376Z,12.47
2022-10-08T00:57:20.593Z,10.87
2022-10-08T01:02:28.599Z,11.87
2022-10-08T01:07:39.883Z,13.03
2022-10-08T01:12:51.331Z,11.43
2022-10-08T01:18:03.240Z,11.03
2022-10-08T01:23:14.277Z,10.67
2022-10-08T01:28:25.515Z,10.33
2022-10-08T01:33:36.947Z,9.87
2022-10-08T01:38:46.638Z,8.57
2022-10-08T01:43:58.997Z,8.57
2022-10-08T01:49:11.509Z,7.83
2022-10-08T01:54:19.540Z,8.20
2022-10-08T01:59:31.755Z,7.67
2022-10-08T02:04:39.560Z,8.03
2022-10-08T02:09:49.388Z,8.03
2022-10-08T02:14:58.778Z,8.33
2022-10-08T02:20:11.380Z,7.90
2022-10-08T02:25:22.450Z,8.30
2022-10-08T02:30:33.091Z,9.50
2022-10-08T02:35:43.754Z,7.43
2022-10-08T02:40:53.534Z,8.73
2022-10-08T02:46:04.609Z,8.90
2022-10-08T02:51:14.640Z,8.47
2022-10-08T02:56:26.060Z,8.37
2022-10-08T03:06:48.464Z,8.33
2022-10-08T03:11:56.386Z,7.43
2022-10-08T03:17:04.326Z,8.00
2022-10-08T03:22:12.749Z,8.70
2022-10-08T03:27:21.687Z,9.77
2022-10-08T03:32:29.519Z,9.77
2022-10-08T03:37:38.471Z,8.97
2022-10-08T03:42:47.648Z,8.70
2022-10-08T03:47:56.555Z,8.17
2022-10-08T03:53:04.477Z,8.50
2022-10-08T03:58:12.497Z,8.40
2022-10-08T04:03:20.622Z,7.23
2022-10-08T04:08:28.513Z,8.60
2022-10-08T04:13:36.899Z,8.53
2022-10-08T04:18:45.009Z,8.60
2022-10-08T04:23:53.001Z,8.07
2022-10-08T04:29:00.854Z,8.30
2022-10-08T04:34:10.682Z,8.50
2022-10-08T04:39:18.611Z,9.80
2022-10-08T04:44:26.985Z,9.73
2022-10-08T04:49:35.126Z,10.57
2022-10-08T04:54:43.438Z,11.10
2022-10-08T05:00:16.609Z,11.10
2022-10-08T05:05:01.121Z,10.57
2022-10-08T05:10:09.555Z,10.57
2022-10-08T05:15:17.992Z,11.23
2022-10-08T05:20:25.985Z,10.30
2022-10-08T05:25:34.519Z,11.20
2022-10-08T05:30:42.381Z,10.93
2022-10-08T05:35:50.331Z,11.63
2022-10-08T05:41:01.458Z,11.30
2022-10-08T05:46:09.552Z,10.63
2022-10-08T05:51:18.062Z,11.27
2022-10-08T05:56:26.388Z,12.00
2022-10-08T06:01:34.885Z,11.77
2022-10-08T06:06:43.801Z,11.80
2022-10-08T06:11:53.021Z,11.40
2022-10-08T06:17:00.906Z,11.47
2022-10-08T06:22:08.936Z,12.13
2022-10-08T06:27:17.062Z,11.87
2022-10-08T06:32:25.082Z,12.27
2022-10-08T06:37:33.109Z,11.20
2022-10-08T06:42:40.975Z,12.60
2022-10-08T06:47:49.842Z,11.97
2022-10-08T06:52:58.006Z,11.63
2022-10-08T06:58:05.993Z,11.57
2022-10-08T07:03:14.225Z,11.87
2022-10-08T07:08:22.931Z,13.23
2022-10-08T07:13:31.473Z,13.57
2022-10-08T07:18:40.005Z,15.03
2022-10-08T07:23:48.095Z,12.83
2022-10-08T07:28:59.839Z,10.67
2022-10-08T07:34:13.489Z,10.80
2022-10-08T07:39:21.753Z,11.50
2022-10-08T07:44:29.914Z,11.00
2022-10-08T07:49:37.973Z,11.13
2022-10-08T07:54:45.792Z,10.90
2022-10-08T07:59:53.825Z,11.20
2022-10-08T08:05:01.793Z,11.20
2022-10-08T08:10:10.380Z,10.60
2022-10-08T08:15:18.470Z,11.43
2022-10-08T08:20:26.346Z,10.60
2022-10-08T08:25:36.862Z,11.30
2022-10-08T08:30:44.766Z,9.80
2022-10-08T08:35:55.826Z,11.40
2022-10-08T08:41:12.682Z,10.63
2022-10-08T08:46:21.674Z,9.40
2022-10-08T08:51:29.610Z,11.47
2022-10-08T08:56:37.480Z,9.77
2022-10-08T09:01:46.289Z,9.50
2022-10-08T09:06:54.212Z,9.50
2022-10-08T09:12:03.674Z,10.03
2022-10-08T09:17:14.863Z,8.87
2022-10-08T09:22:25.597Z,8.80
2022-10-08T09:27:36.716Z,8.07
2022-10-08T09:32:44.917Z,7.40
2022-10-08T09:37:53.499Z,8.93
2022-10-08T09:43:04.512Z,9.67
2022-10-08T09:48:15.533Z,10.33
2022-10-08T09:53:24.593Z,8.80
2022-10-08T09:58:34.707Z,8.20
2022-10-08T10:03:45.180Z,8.40
2022-10-08T10:08:57.049Z,8.43
2022-10-08T10:14:08.018Z,13.83
2022-10-08T10:19:19.113Z,9.80
2022-10-08T10:24:30.175Z,8.83
2022-10-08T10:29:41.205Z,9.40
2022-10-08T10:34:51.445Z,8.37
2022-10-08T10:40:02.448Z,11.57
2022-10-08T10:45:13.505Z,10.17
2022-10-08T10:50:25.068Z,11.30
2022-10-08T10:55:36.162Z,10.90
2022-10-08T11:00:47.230Z,8.10
2022-10-08T11:05:59.312Z,8.60
2022-10-08T11:11:10.460Z,9.10
2022-10-08T11:16:22.943Z,10.07
2022-10-08T11:21:34.055Z,7.80
2022-10-08T11:26:45.417Z,10.87
2022-10-08T11:31:53.442Z,8.57
2022-10-08T11:37:04.340Z,8.70
2022-10-08T11:42:15.384Z,8.63
2022-10-08T11:47:26.431Z,8.30
2022-10-08T11:52:35.521Z,7.67
2022-10-08T11:58:06.565Z,9.77
2022-10-08T12:02:54.842Z,10.93
2022-10-08T12:08:04.165Z,9.07
2022-10-08T12:13:17.894Z,9.23
2022-10-08T12:18:29.723Z,7.93
2022-10-08T12:23:39.674Z,8.40
2022-10-08T12:28:50.934Z,8.07
2022-10-08T12:34:01.609Z,8.67
2022-10-08T12:44:28.577Z,9.67
2022-10-08T12:49:41.219Z,8.53
2022-10-08T12:54:52.062Z,9.33
2022-10-08T13:00:00.743Z,10.90
2022-10-08T13:05:11.782Z,10.70
2022-10-08T13:10:22.355Z,10.77
2022-10-08T13:15:31.988Z,11.40
2022-10-08T13:20:40.246Z,11.00
2022-10-08T13:25:48.370Z,10.73
2022-10-08T13:30:58.313Z,12.10
2022-10-08T13:36:06.358Z,11.77
2022-10-08T13:41:17.517Z,11.50
2022-10-08T13:46:25.627Z,13.57
2022-10-08T13:51:33.914Z,12.73
2022-10-08T13:56:41.835Z,12.63
2022-10-08T14:01:49.812Z,12.97
2022-10-08T14:06:58.121Z,12.43
2022-10-08T14:12:06.094Z,15.00
2022-10-08T14:17:15.040Z,16.43
2022-10-08T14:22:23.002Z,15.03
2022-10-08T14:27:31.252Z,16.10
2022-10-08T14:32:39.335Z,16.73
2022-10-08T14:37:48.122Z,17.13
2022-10-08T14:42:56.273Z,16.03
2022-10-08T14:48:04.141Z,15.83
2022-10-08T14:53:13.465Z,15.87
2022-10-08T14:58:23.185Z,16.50
2022-10-08T15:03:31.331Z,16.00
2022-10-08T15:08:41.016Z,15.57
2022-10-08T15:13:49.063Z,15.37
2022-10-08T15:18:57.470Z,16.27
2022-10-08T15:24:06.552Z,16.27
2022-10-08T15:29:14.509Z,15.30
2022-10-08T15:34:22.748Z,16.87
2022-10-08T15:39:35.672Z,14.50
2022-10-08T15:44:42.231Z,12.03
2022-10-08T15:49:51.132Z,10.67
2022-10-08T15:54:58.995Z,11.67
2022-10-08T16:00:07.291Z,11.13
2022-10-08T16:05:15.868Z,11.77
2022-10-08T16:10:23.894Z,10.63
2022-10-08T16:15:34.989Z,11.53
2022-10-08T16:20:42.976Z,9.33
2022-10-08T16:25:51.223Z,9.07
2022-10-08T16:31:00.169Z,7.17
2022-10-08T16:36:09.181Z,5.83
2022-10-08T16:41:20.315Z,7.67
2022-10-08T16:46:30.487Z,6.87
2022-10-08T16:51:38.920Z,6.20
2022-10-08T16:56:47.417Z,5.40
2022-10-08T17:01:56.541Z,4.53
2022-10-08T17:07:04.842Z,4.73
2022-10-08T17:12:12.723Z,4.73
2022-10-08T17:17:20.768Z,4.60
2022-10-08T17:22:28.807Z,4.03
2022-10-08T17:27:37.617Z,3.50
2022-10-08T17:32:46.888Z,3.90
2022-10-08T17:37:55.142Z,3.60
2022-10-08T17:43:03.990Z,3.90
2022-10-08T17:48:13.096Z,3.47
2022-10-08T17:53:20.914Z,3.57
2022-10-08T17:58:31.323Z,3.27
2022-10-08T18:03:40.517Z,2.67
2022-10-08T18:08:48.816Z,2.70
2022-10-08T18:13:56.848Z,2.73
2022-10-08T18:19:09.036Z,2.37
2022-10-08T18:24:18.042Z,3.87
2022-10-08T18:29:26.185Z,3.67
2022-10-08T18:34:35.819Z,3.43
2022-10-08T18:39:43.820Z,3.27
2022-10-08T18:44:51.699Z,3.40
2022-10-08T18:49:59.803Z,3.33
2022-10-08T18:55:09.762Z,3.47
2022-10-08T19:00:17.949Z,4.20
2022-10-08T19:05:26.901Z,3.23
2022-10-08T19:10:34.896Z,3.80
2022-10-08T19:15:43.022Z,4.10
2022-10-08T19:20:51.109Z,3.73
2022-10-08T19:25:59.687Z,3.77
2022-10-08T19:31:11.329Z,4.30
2022-10-08T19:36:22.065Z,4.00
2022-10-08T19:41:31.243Z,4.57
2022-10-08T19:46:40.008Z,3.87
2022-10-08T19:51:48.262Z,3.03
2022-10-08T19:57:02.536Z,3.53
2022-10-08T20:02:11.889Z,3.40
2022-10-08T20:07:21.092Z,2.77
2022-10-08T20:12:29.675Z,2.90
2022-10-08T20:17:38.079Z,2.57
2022-10-08T20:22:46.826Z,2.60
2022-10-08T20:27:57.534Z,2.37
2022-10-08T20:33:05.686Z,2.10
2022-10-08T20:38:13.670Z,2.60
2022-10-08T20:43:21.931Z,2.47
2022-10-08T20:48:33.091Z,2.73
2022-10-08T20:53:41.079Z,2.20
2022-10-08T20:58:49.192Z,2.60
2022-10-08T21:03:57.985Z,2.53
2022-10-08T21:09:05.987Z,2.67
2022-10-08T21:14:16.292Z,2.70
2022-10-08T21:19:24.298Z,2.80
2022-10-08T21:24:32.310Z,3.00
2022-10-08T21:29:40.837Z,3.20
2022-10-08T21:34:48.863Z,2.93
2022-10-08T21:39:57.115Z,3.00
2022-10-08T21:45:05.393Z,3.47
2022-10-08T21:50:13.720Z,4.20
2022-10-08T21:55:21.685Z,3.53
2022-10-08T22:00:32.472Z,3.80
2022-10-08T22:05:40.872Z,4.60
2022-10-08T22:10:49.839Z,4.23
2022-10-08T22:15:59.101Z,4.00
2022-10-08T22:21:09.668Z,4.60
2022-10-08T22:26:20.238Z,4.70
2022-10-08T22:31:30.413Z,3.97
2022-10-08T22:36:41.261Z,4.50
2022-10-08T22:41:50.107Z,4.40
2022-10-08T22:46:58.012Z,4.40
2022-10-08T22:52:06.207Z,4.83
2022-10-08T22:57:14.543Z,3.83
2022-10-08T23:02:22.659Z,4.00
2022-10-08T23:07:32.067Z,3.53
2022-10-08T23:12:39.894Z,3.37
2022-10-08T23:17:48.019Z,2.73
2022-10-08T23:22:56.438Z,3.23
2022-10-08T23:28:04.347Z,3.20
2022-10-08T23:33:12.417Z,3.03
2022-10-08T23:38:20.434Z,2.93
2022-10-08T23:43:29.528Z,2.13
2022-10-08T23:48:37.510Z,2.03
2022-10-08T23:53:45.883Z,2.53
2022-10-08T23:58:53.802Z,2.67
